Time;durP1;ratioP1;P1;durP2;ratioP2;P2;SDS_P1;SDS_P2;PMS_P1;PMS_P2;Temp;Humidity;BMP_temperature;BMP_pressure;BME280_temperature;BME280_humidity;BME280_pressure;Samples;Min_cycle;Max_cycle;Signal;HPM_P1;HPM_P2
2023/07/15 00:01:27;;;;;;;3.00;1.90;;;;;;;19.59;100.00;99563.70;108514;1251;61352;-58
2023/07/15 00:03:56;;;;;;;1.90;1.70;;;;;;;19.61;100.00;99559.46;108555;1256;60179;-59
2023/07/15 00:06:24;;;;;;;2.70;1.60;;;;;;;19.63;100.00;99561.08;108463;1251;73607;-58
2023/07/15 00:08:52;;;;;;;2.80;1.80;;;;;;;19.63;100.00;99561.62;108369;1251;69206;-59
2023/07/15 00:11:27;;;;;;;3.20;1.80;;;;;;;19.62;100.00;99567.67;108505;1253;72371;-59
2023/07/15 00:13:56;;;;;;;4.20;2.00;;;;;;;19.63;100.00;99567.65;108350;1253;61380;-58
2023/07/15 00:16:25;;;;;;;7.10;2.20;;;;;;;19.63;100.00;99568.04;108542;1250;59731;-58
2023/07/15 00:18:53;;;;;;;5.10;1.50;;;;;;;19.61;100.00;99569.92;108382;1251;72995;-60
2023/07/15 00:21:24;;;;;;;;;;;;;;;19.62;100.00;99571.69;108390;1250;69689;-59
2023/07/15 00:23:55;;;;;;;3.20;1.50;;;;;;;19.60;100.00;99575.39;108400;1254;71416;-59
2023/07/15 00:26:25;;;;;;;3.10;1.90;;;;;;;19.57;100.00;99573.99;108413;1253;62071;-59
2023/07/15 00:28:52;;;;;;;3.90;2.00;;;;;;;19.55;100.00;99577.34;108447;1251;60099;-59
2023/07/15 00:31:21;;;;;;;2.20;2.00;;;;;;;19.54;100.00;99579.94;108386;1250;73534;-58
2023/07/15 00:33:49;;;;;;;5.80;2.00;;;;;;;19.53;100.00;99579.67;108558;1251;69544;-59
2023/07/15 00:36:17;;;;;;;4.60;2.70;;;;;;;19.52;100.00;99577.61;108487;1250;72340;-58
2023/07/15 00:38:47;;;;;;;4.20;2.00;;;;;;;19.53;100.00;99579.45;108536;1251;61833;-58
2023/07/15 00:41:32;;;;;;;4.20;1.90;;;;;;;19.50;100.00;99579.16;108532;1250;60692;-58
2023/07/15 00:44:01;;;;;;;3.90;2.00;;;;;;;19.47;100.00;99584.27;108501;1253;73663;-58
2023/07/15 00:46:53;;;;;;;4.40;2.00;;;;;;;19.43;100.00;99582.08;108585;1250;69223;-59
2023/07/15 00:49:34;;;;;;;4.20;2.00;;;;;;;19.45;100.00;99588.27;108520;1250;72259;-58
2023/07/15 00:52:11;;;;;;;3.50;2.20;;;;;;;19.41;100.00;99587.89;108480;1253;61493;-59
2023/07/15 00:54:43;;;;;;;6.10;2.10;;;;;;;19.38;100.00;99587.42;108503;1250;60069;-58
2023/07/15 00:57:11;;;;;;;2.40;2.00;;;;;;;19.37;100.00;99588.25;108134;1250;72624;-58
2023/07/15 00:59:39;;;;;;;4.00;2.30;;;;;;;19.35;100.00;99590.85;108401;1250;69133;-58
2023/07/15 01:02:08;;;;;;;2.20;2.00;;;;;;;19.35;100.00;99591.05;108520;1250;71370;-58
2023/07/15 01:04:36;;;;;;;4.60;2.10;;;;;;;19.32;100.00;99591.65;108502;1250;61408;-58
2023/07/15 01:07:07;;;;;;;2.00;1.90;;;;;;;19.29;100.00;99594.01;108531;1250;59772;-58
2023/07/15 01:09:36;;;;;;;5.30;2.40;;;;;;;19.28;100.00;99597.80;108561;1250;73774;-58
2023/07/15 01:12:04;;;;;;;3.60;2.40;;;;;;;19.29;100.00;99594.01;108558;1250;70161;-59
2023/07/15 01:14:33;;;;;;;3.80;2.10;;;;;;;19.29;100.00;99598.09;108307;1250;72347;-59
2023/07/15 01:17:02;;;;;;;4.50;2.20;;;;;;;19.25;100.00;99600.23;108492;1256;61391;-58
2023/07/15 01:19:30;;;;;;;5.60;2.20;;;;;;;19.23;100.00;99603.56;108434;1251;60695;-58
2023/07/15 01:21:58;;;;;;;5.70;1.70;;;;;;;19.20;100.00;99606.95;108353;1250;74046;-57
2023/07/15 01:24:27;;;;;;;8.30;2.70;;;;;;;19.19;100.00;99607.96;107945;1250;69174;-59
2023/07/15 01:26:57;;;;;;;6.40;2.30;;;;;;;19.17;100.00;99609.52;108443;1253;72860;-58
2023/07/15 01:29:25;;;;;;;3.00;2.10;;;;;;;19.15;100.00;99614.90;108277;1251;61441;-59
2023/07/15 01:31:53;;;;;;;3.10;2.00;;;;;;;19.12;100.00;99612.63;108446;1252;60670;-58
2023/07/15 01:34:21;;;;;;;1.90;1.80;;;;;;;19.10;100.00;99615.09;108188;1257;73699;-58
2023/07/15 01:36:49;;;;;;;7.10;2.10;;;;;;;19.09;100.00;99615.02;108409;1250;70303;-58
2023/07/15 01:39:17;;;;;;;;;;;;;;;19.08;100.00;99613.33;108430;1253;72358;-58
2023/07/15 01:41:44;;;;;;;5.00;2.30;;;;;;;19.05;100.00;99615.43;108387;1253;61488;-58
2023/07/15 01:44:13;;;;;;;4.30;2.40;;;;;;;19.03;100.00;99619.73;108182;1250;60582;-58
2023/07/15 01:46:40;;;;;;;4.60;2.40;;;;;;;19.02;100.00;99616.59;108425;1250;73859;-58
2023/07/15 01:49:08;;;;;;;5.10;2.50;;;;;;;18.99;100.00;99621.41;108416;1250;69115;-58
2023/07/15 01:51:36;;;;;;;3.90;2.00;;;;;;;18.97;100.00;99624.41;108404;1250;72251;-58
2023/07/15 01:54:04;;;;;;;;;;;;;;;18.97;100.00;99623.56;108511;1250;60530;-58
2023/07/15 01:56:32;;;;;;;2.20;1.90;;;;;;;18.92;100.00;99626.09;108520;1251;59907;-58
2023/07/15 01:59:00;;;;;;;2.10;1.90;;;;;;;18.88;100.00;99630.61;108364;1251;74524;-58
2023/07/15 02:01:27;;;;;;;6.60;2.00;;;;;;;18.87;100.00;99629.34;108352;1253;69165;-58
2023/07/15 02:03:55;;;;;;;3.90;1.90;;;;;;;18.81;100.00;99630.30;108556;1250;72751;-58
2023/07/15 02:06:24;;;;;;;4.50;2.00;;;;;;;18.79;100.00;99634.36;108570;1253;62379;-60
2023/07/15 02:08:51;;;;;;;6.80;2.20;;;;;;;18.76;100.00;99637.79;108547;1253;59120;-58
2023/07/15 02:11:20;;;;;;;7.40;2.00;;;;;;;18.76;100.00;99640.90;108502;1252;73677;-58
2023/07/15 02:13:50;;;;;;;3.50;2.40;;;;;;;18.75;100.00;99639.95;108582;1253;69110;-58
2023/07/15 02:16:19;;;;;;;3.30;2.20;;;;;;;18.75;100.00;99642.80;108487;1251;73322;-58
2023/07/15 02:18:48;;;;;;;2.70;2.50;;;;;;;18.73;100.00;99642.29;108336;1256;61405;-58
2023/07/15 02:21:15;;;;;;;3.70;2.30;;;;;;;18.73;100.00;99644.02;108382;1250;60561;-58
2023/07/15 02:23:43;;;;;;;3.50;2.10;;;;;;;18.70;100.00;99643.91;108424;1250;73540;-57
2023/07/15 02:26:12;;;;;;;5.80;1.90;;;;;;;18.67;100.00;99648.02;108394;1250;69654;-58
2023/07/15 02:28:40;;;;;;;3.00;2.30;;;;;;;18.62;100.00;99649.59;108390;1251;72919;-58
2023/07/15 02:31:08;;;;;;;3.00;1.90;;;;;;;18.65;100.00;99649.40;108197;1251;61853;-59
2023/07/15 02:33:35;;;;;;;4.70;2.00;;;;;;;18.65;100.00;99654.79;108456;1250;59655;-58
2023/07/15 02:36:04;;;;;;;2.00;1.90;;;;;;;18.65;100.00;99654.41;108498;1251;73594;-58
2023/07/15 02:38:32;;;;;;;5.70;2.30;;;;;;;18.64;100.00;99656.59;108498;1250;69189;-59
2023/07/15 02:41:00;;;;;;;;;;;;;;;18.65;100.00;99659.70;108504;1251;72185;-58
2023/07/15 02:43:27;;;;;;;5.60;1.90;;;;;;;18.64;100.00;99658.73;108257;1251;61804;-58
2023/07/15 02:45:56;;;;;;;6.10;2.40;;;;;;;18.63;100.00;99657.37;108556;1254;60370;-58
2023/07/15 02:48:24;;;;;;;4.80;2.20;;;;;;;18.64;100.00;99665.11;108363;1250;74058;-59
2023/07/15 02:50:53;;;;;;;6.00;2.00;;;;;;;18.63;100.00;99663.42;108552;1257;68370;-58
2023/07/15 02:53:21;;;;;;;3.30;1.90;;;;;;;18.65;100.00;99664.33;108325;1250;71449;-58
2023/07/15 02:55:52;;;;;;;3.40;2.20;;;;;;;18.66;100.00;99668.70;108531;1250;61940;-59
2023/07/15 02:58:21;;;;;;;5.00;2.10;;;;;;;18.65;100.00;99667.37;108527;1250;62918;-58
2023/07/15 03:00:52;;;;;;;3.70;2.10;;;;;;;18.64;100.00;99669.54;108519;1250;74608;-58
2023/07/15 03:03:20;;;;;;;3.90;2.20;;;;;;;18.66;100.00;99669.77;108548;1251;70236;-58
2023/07/15 03:05:49;;;;;;;2.70;1.90;;;;;;;18.65;100.00;99672.42;108556;1251;72464;-58
2023/07/15 03:08:16;;;;;;;3.60;2.20;;;;;;;18.69;100.00;99676.82;108624;1252;61587;-58
2023/07/15 03:10:44;;;;;;;;;;;;;;;18.72;100.00;99670.02;108556;1251;60116;-60
2023/07/15 03:13:12;;;;;;;;;;;;;;;18.73;100.00;99674.19;108549;1251;73688;-58
2023/07/15 03:15:39;;;;;;;4.60;2.20;;;;;;;18.71;100.00;99675.40;108543;1251;69037;-58
2023/07/15 03:18:07;;;;;;;;;;;;;;;18.73;100.00;99675.45;108515;1251;72347;-58
2023/07/15 03:20:35;;;;;;;2.20;2.00;;;;;;;18.72;100.00;99671.44;108443;1251;61841;-58
2023/07/15 03:23:03;;;;;;;;;;;;;;;18.73;100.00;99669.56;108442;1251;60732;-58
2023/07/15 03:25:32;;;;;;;2.60;2.00;;;;;;;18.78;100.00;99674.73;108372;1253;72513;-58
2023/07/15 03:27:59;;;;;;;4.50;2.20;;;;;;;18.79;100.00;99672.11;108417;1251;69159;-57
2023/07/15 03:30:27;;;;;;;3.80;2.40;;;;;;;18.83;100.00;99671.71;108399;1253;72298;-58
2023/07/15 03:32:56;;;;;;;3.10;2.30;;;;;;;18.88;100.00;99668.45;108420;1251;60373;-58
2023/07/15 03:35:25;;;;;;;2.50;2.20;;;;;;;18.94;100.00;99667.45;108433;1256;59722;-59
2023/07/15 03:37:52;;;;;;;4.50;2.30;;;;;;;18.97;100.00;99672.39;108505;1251;73647;-58
2023/07/15 03:40:21;;;;;;;4.30;2.30;;;;;;;18.99;100.00;99673.48;108589;1252;69276;-58
2023/07/15 03:42:49;;;;;;;5.10;2.20;;;;;;;19.01;100.00;99674.73;108396;1252;72396;-58
2023/07/15 03:45:16;;;;;;;;;;;;;;;19.07;100.00;99671.61;108474;1256;61426;-58
2023/07/15 03:47:46;;;;;;;5.00;2.30;;;;;;;19.14;100.00;99676.06;108369;1254;60427;-58
2023/07/15 03:50:14;;;;;;;5.30;2.30;;;;;;;19.18;100.00;99673.60;108364;1254;73439;-58
2023/07/15 03:52:42;;;;;;;2.20;1.90;;;;;;;19.23;100.00;99674.43;108423;1251;68080;-58
2023/07/15 03:55:09;;;;;;;;;;;;;;;19.29;100.00;99675.40;108398;1253;72482;-58
2023/07/15 03:57:37;;;;;;;4.60;2.60;;;;;;;19.35;100.00;99674.96;108523;1251;61396;-58
2023/07/15 04:00:17;;;;;;;5.00;2.80;;;;;;;19.39;100.00;99676.38;108543;1254;60736;-58
2023/07/15 04:02:46;;;;;;;2.60;2.40;;;;;;;19.46;100.00;99678.52;108552;1252;74263;-57
2023/07/15 04:05:14;;;;;;;3.00;2.40;;;;;;;19.51;100.00;99678.88;108510;1251;68630;-59
2023/07/15 04:07:42;;;;;;;2.80;2.40;;;;;;;19.55;100.00;99678.16;108508;1254;72543;-58
2023/07/15 04:10:09;;;;;;;;;;;;;;;19.57;100.00;99680.48;108534;1253;61414;-58
2023/07/15 04:12:37;;;;;;;4.10;2.40;;;;;;;19.57;100.00;99681.20;108561;1254;59457;-58
2023/07/15 04:15:05;;;;;;;;;;;;;;;19.61;100.00;99682.16;108540;1252;73093;-58
2023/07/15 04:17:33;;;;;;;4.60;2.40;;;;;;;19.59;100.00;99685.10;108553;1252;69196;-58
2023/07/15 04:20:01;;;;;;;2.90;2.10;;;;;;;19.63;100.00;99692.12;108556;1254;72352;-58
2023/07/15 04:22:29;;;;;;;6.40;2.70;;;;;;;19.71;100.00;99692.95;108403;1254;62492;-60
2023/07/15 04:24:57;;;;;;;3.50;2.30;;;;;;;19.77;100.00;99697.93;108374;1253;59671;-58
2023/07/15 04:27:24;;;;;;;3.50;2.40;;;;;;;19.83;100.00;99700.47;108419;1251;73610;-58
2023/07/15 04:29:52;;;;;;;2.60;2.30;;;;;;;19.90;100.00;99704.41;108356;1251;68245;-58
2023/07/15 04:32:20;;;;;;;3.90;2.60;;;;;;;19.93;100.00;99703.08;108417;1253;72520;-58
2023/07/15 04:34:50;;;;;;;6.80;2.10;;;;;;;19.98;100.00;99702.63;108406;1252;61488;-58
2023/07/15 04:37:17;;;;;;;6.60;2.40;;;;;;;20.07;100.00;99705.69;108501;1253;59341;-58
2023/07/15 04:39:45;;;;;;;3.00;2.20;;;;;;;20.11;100.00;99708.93;108567;1251;73654;-58
2023/07/15 04:42:13;;;;;;;5.10;2.10;;;;;;;20.16;100.00;99712.98;108526;1251;68149;-59
2023/07/15 04:44:40;;;;;;;2.60;2.40;;;;;;;20.21;100.00;99712.92;108491;1253;72327;-58
2023/07/15 04:47:08;;;;;;;;;;;;;;;20.25;100.00;99714.89;108491;1253;61642;-59
2023/07/15 04:49:36;;;;;;;4.30;2.30;;;;;;;20.30;100.00;99719.48;108625;1254;59807;-58
2023/07/15 04:52:04;;;;;;;3.00;2.10;;;;;;;20.36;100.00;99719.35;108581;1251;75291;-58
2023/07/15 04:54:32;;;;;;;3.10;2.10;;;;;;;20.43;100.00;99720.33;108568;1252;68417;-58
2023/07/15 04:57:00;;;;;;;4.10;1.90;;;;;;;20.51;100.00;99721.85;108565;1253;72302;-58
2023/07/15 04:59:27;;;;;;;2.90;2.40;;;;;;;20.58;100.00;99724.48;108415;1253;61413;-59
2023/07/15 05:01:55;;;;;;;3.40;2.20;;;;;;;20.66;100.00;99722.03;108595;1251;60067;-58
2023/07/15 05:04:23;;;;;;;3.70;2.40;;;;;;;20.72;100.00;99717.27;108612;1251;73639;-58
2023/07/15 05:06:51;;;;;;;8.30;2.30;;;;;;;20.78;100.00;99716.77;108664;1251;69084;-59
2023/07/15 05:09:19;;;;;;;3.80;2.10;;;;;;;20.87;100.00;99723.14;108598;1254;71264;-58
2023/07/15 05:11:46;;;;;;;2.10;1.90;;;;;;;20.95;100.00;99723.70;108614;1252;61353;-58
2023/07/15 05:14:14;;;;;;;4.30;2.00;;;;;;;21.04;100.00;99723.16;108516;1251;59099;-58
2023/07/15 05:16:42;;;;;;;;;;;;;;;21.12;100.00;99728.16;108608;1254;73951;-58
2023/07/15 05:19:11;;;;;;;6.90;2.50;;;;;;;21.18;100.00;99723.68;108591;1252;69189;-58
2023/07/15 05:21:38;;;;;;;3.90;1.90;;;;;;;21.26;100.00;99726.79;108598;1251;72336;-58
2023/07/15 05:24:06;;;;;;;3.90;2.30;;;;;;;21.36;100.00;99729.10;108447;1251;61466;-57
2023/07/15 05:26:34;;;;;;;;;;;;;;;21.44;100.00;99726.84;108486;1253;59703;-58
2023/07/15 05:29:02;;;;;;;;;;;;;;;21.47;100.00;99728.77;108476;1251;74615;-57
2023/07/15 05:31:30;;;;;;;3.90;2.40;;;;;;;21.50;100.00;99727.09;108404;1253;69152;-57
2023/07/15 05:34:01;;;;;;;5.10;2.30;;;;;;;21.53;100.00;99731.54;108480;1251;72884;-58
2023/07/15 05:36:29;;;;;;;2.20;2.00;;;;;;;21.59;100.00;99727.48;108519;1251;59919;-57
2023/07/15 05:38:57;;;;;;;;;;;;;;;21.67;100.00;99728.58;108613;1251;59665;-58
2023/07/15 05:41:24;;;;;;;3.40;2.50;;;;;;;21.73;100.00;99727.73;108611;1251;73624;-58
2023/07/15 05:43:52;;;;;;;5.40;2.50;;;;;;;21.78;100.00;99729.39;108585;1251;69245;-60
2023/07/15 05:46:20;;;;;;;;;;;;;;;21.87;100.00;99733.48;108473;1251;72354;-58
2023/07/15 05:48:48;;;;;;;4.60;2.50;;;;;;;21.94;100.00;99733.39;108431;1251;62482;-58
2023/07/15 05:51:16;;;;;;;10.40;2.30;;;;;;;21.99;100.00;99739.02;108481;1251;59158;-58
2023/07/15 05:53:45;;;;;;;8.30;2.50;;;;;;;22.07;100.00;99742.20;108472;1251;74135;-57
2023/07/15 05:56:12;;;;;;;4.40;2.20;;;;;;;22.12;100.00;99733.14;108410;1252;68142;-58
2023/07/15 05:58:41;;;;;;;4.00;2.10;;;;;;;22.18;100.00;99735.31;108360;1253;71121;-58
2023/07/15 06:01:08;;;;;;;5.30;2.20;;;;;;;22.27;100.00;99732.39;108466;1251;61364;-59
2023/07/15 06:03:36;;;;;;;4.00;2.30;;;;;;;22.32;100.00;99736.04;108551;1251;59805;-59
2023/07/15 06:06:04;;;;;;;3.40;2.20;;;;;;;22.42;100.00;99738.39;108514;1254;73728;-59
2023/07/15 06:08:32;;;;;;;2.90;1.90;;;;;;;22.50;100.00;99738.69;108484;1254;69151;-59
2023/07/15 06:13:07;;;;;;;6.00;2.90;;;;;;;22.29;100.00;99736.66;101130;1292;619999;-58
2023/07/15 06:15:36;;;;;;;2.30;2.10;;;;;;;22.61;100.00;99737.42;103986;1269;60990;-59
2023/07/15 06:18:03;;;;;;;5.90;2.70;;;;;;;22.63;100.00;99738.58;103694;1269;60044;-59
2023/07/15 06:20:31;;;;;;;2.20;2.00;;;;;;;22.63;100.00;99734.85;103774;1269;72088;-61
2023/07/15 06:22:58;;;;;;;3.10;2.40;;;;;;;22.65;100.00;99735.19;103758;1266;70089;-60
2023/07/15 06:25:29;;;;;;;5.90;2.40;;;;;;;22.69;100.00;99737.67;106411;1263;278993;-59
2023/07/15 06:27:56;;;;;;;5.10;2.40;;;;;;;22.72;100.00;99738.63;103968;1269;61803;-58
2023/07/15 06:30:26;;;;;;;3.10;2.40;;;;;;;22.76;100.00;99741.17;103953;1264;59849;-62
2023/07/15 06:32:52;;;;;;;4.60;2.50;;;;;;;22.83;100.00;99744.40;103960;1267;72676;-60
2023/07/15 06:35:19;;;;;;;4.80;2.40;;;;;;;22.92;100.00;99738.95;104418;1260;69249;-61
2023/07/15 06:37:47;;;;;;;6.10;2.00;;;;;;;22.99;100.00;99738.50;104337;1267;73442;-60
2023/07/15 06:40:20;;;;;;;4.80;2.20;;;;;;;23.01;100.00;99736.71;104622;1260;59908;-60
2023/07/15 06:42:48;;;;;;;3.60;2.30;;;;;;;23.06;100.00;99736.45;104382;1257;61038;-60
2023/07/15 06:45:18;;;;;;;11.80;2.50;;;;;;;23.15;100.00;99737.95;104350;1273;71777;-59
2023/07/15 06:47:45;;;;;;;3.60;2.20;;;;;;;23.25;100.00;99739.52;104557;1260;69377;-59
2023/07/15 06:50:12;;;;;;;6.90;2.60;;;;;;;23.32;100.00;99735.24;104346;1273;72254;-59
2023/07/15 06:52:39;;;;;;;7.90;2.30;;;;;;;23.42;100.00;99735.05;104584;1260;61689;-59
2023/07/15 06:55:07;;;;;;;2.90;2.20;;;;;;;23.51;100.00;99739.84;104319;1261;60015;-60
2023/07/15 06:57:34;;;;;;;2.50;2.30;;;;;;;23.58;100.00;99737.26;104411;1256;72311;-60
2023/07/15 07:00:01;;;;;;;2.20;2.00;;;;;;;23.68;100.00;99734.48;104376;1260;69317;-59
2023/07/15 07:02:31;;;;;;;4.10;2.00;;;;;;;23.75;100.00;99735.33;104260;1276;73506;-60
2023/07/15 07:04:58;;;;;;;2.20;2.00;;;;;;;23.81;100.00;99737.20;104503;1272;60029;-60
2023/07/15 07:07:26;;;;;;;5.20;2.00;;;;;;;23.89;100.00;99734.63;104467;1257;60167;-59
2023/07/15 07:09:53;;;;;;;3.50;2.00;;;;;;;23.96;100.00;99739.07;104413;1257;73468;-59
2023/07/15 07:12:22;;;;;;;2.90;2.30;;;;;;;23.98;100.00;99732.92;104323;1260;69338;-59
2023/07/15 07:14:50;;;;;;;2.90;2.10;;;;;;;24.05;100.00;99739.92;104253;1257;72582;-59
2023/07/15 07:17:17;;;;;;;3.30;2.00;;;;;;;24.11;100.00;99740.95;104357;1257;60903;-60
2023/07/15 07:19:46;;;;;;;4.10;2.10;;;;;;;24.16;100.00;99741.52;104309;1255;60005;-59
2023/07/15 07:22:13;;;;;;;5.50;2.10;;;;;;;24.24;100.00;99745.90;104503;1256;73195;-60
2023/07/15 07:24:39;;;;;;;2.40;2.00;;;;;;;24.34;100.00;99746.05;107622;1256;69361;-58
2023/07/15 07:27:07;;;;;;;5.10;2.90;;;;;;;24.44;100.00;99744.98;107581;1256;72414;-59
2023/07/15 07:29:34;;;;;;;4.40;3.20;;;;;;;24.57;100.00;99744.14;104619;1257;61765;-60
2023/07/15 07:32:01;;;;;;;6.60;2.20;;;;;;;24.70;100.00;99748.43;104459;1257;60460;-60
2023/07/15 07:34:28;;;;;;;5.20;2.20;;;;;;;24.80;100.00;99748.26;104651;1257;73405;-60
2023/07/15 07:36:55;;;;;;;4.60;2.30;;;;;;;24.91;100.00;99748.59;104730;1257;69528;-60
2023/07/15 07:39:22;;;;;;;3.50;2.40;;;;;;;24.98;100.00;99750.79;104327;1260;72324;-60
2023/07/15 07:41:49;;;;;;;2.80;2.20;;;;;;;25.04;100.00;99753.16;104474;1260;60895;-60
2023/07/15 07:44:16;;;;;;;3.10;2.50;;;;;;;25.09;100.00;99748.77;104365;1256;60188;-59
2023/07/15 07:46:43;;;;;;;3.10;2.10;;;;;;;25.13;100.00;99752.25;104290;1279;72517;-59
2023/07/15 07:49:09;;;;;;;3.90;1.90;;;;;;;25.18;100.00;99752.32;104453;1260;69944;-59
2023/07/15 07:51:36;;;;;;;3.40;2.00;;;;;;;25.23;100.00;99755.98;106454;1256;72917;-60
2023/07/15 07:54:03;;;;;;;5.10;2.30;;;;;;;25.25;100.00;99754.85;105632;1256;60475;-62
2023/07/15 07:56:30;;;;;;;2.70;1.90;;;;;;;25.28;100.00;99753.30;104589;1256;60140;-60
2023/07/15 07:58:59;;;;;;;2.50;2.00;;;;;;;25.35;100.00;99760.84;104425;1257;73545;-60
2023/07/15 08:01:26;;;;;;;3.60;1.90;;;;;;;25.41;100.00;99757.04;104298;1258;68570;-60
2023/07/15 08:03:54;;;;;;;4.30;2.10;;;;;;;25.38;100.00;99757.63;104309;1258;73379;-60
2023/07/15 08:06:21;;;;;;;5.40;2.60;;;;;;;25.41;100.00;99757.39;104263;1269;60178;-59
2023/07/15 08:08:48;;;;;;;2.80;2.00;;;;;;;25.49;100.00;99759.92;104374;1260;61019;-59
2023/07/15 08:11:15;;;;;;;2.10;1.90;;;;;;;25.56;100.00;99759.38;104332;1267;72468;-59
2023/07/15 08:13:42;;;;;;;2.90;1.90;;;;;;;25.60;100.00;99755.95;104289;1260;68328;-59
2023/07/15 08:16:33;;;;;;;4.20;1.50;;;;;;;25.66;100.00;99758.13;104355;1256;72109;-59
2023/07/15 08:19:01;;;;;;;3.70;1.60;;;;;;;25.77;100.00;99756.64;104309;1256;60049;-59
2023/07/15 08:21:28;;;;;;;2.30;1.60;;;;;;;25.86;100.00;99751.59;104353;1257;60001;-59
2023/07/15 08:23:55;;;;;;;4.80;1.90;;;;;;;25.92;100.00;99751.73;104394;1260;72687;-60
2023/07/15 08:26:23;;;;;;;2.40;1.40;;;;;;;26.02;100.00;99753.73;108043;1256;68282;-60
2023/07/15 08:28:50;;;;;;;3.70;1.70;;;;;;;26.13;100.00;99751.97;105949;1260;72733;-59
2023/07/15 08:31:18;;;;;;;2.10;1.40;;;;;;;26.23;100.00;99749.88;104386;1257;60448;-59
2023/07/15 08:33:45;;;;;;;2.00;1.30;;;;;;;26.29;99.70;99750.48;104362;1257;59754;-60
2023/07/15 08:36:13;;;;;;;3.50;1.40;;;;;;;26.33;99.01;99749.70;104244;1275;72519;-60
2023/07/15 08:38:40;;;;;;;3.90;1.70;;;;;;;26.41;99.40;99748.32;104684;1264;69780;-59
2023/07/15 08:41:07;;;;;;;8.10;1.90;;;;;;;26.47;99.10;99742.67;104043;1260;72055;-59
2023/07/15 08:43:35;;;;;;;3.50;1.40;;;;;;;26.55;96.77;99749.42;104211;1256;59752;-59
2023/07/15 08:46:07;;;;;;;4.30;1.60;;;;;;;26.64;93.84;99743.91;104168;1256;59866;-59
2023/07/15 08:48:34;;;;;;;5.20;1.60;;;;;;;26.70;93.47;99741.61;104194;1260;72955;-59
2023/07/15 08:51:01;;;;;;;3.80;1.10;;;;;;;26.78;91.82;99737.84;103992;1260;69333;-59
2023/07/15 08:53:29;;;;;;;2.80;1.20;;;;;;;26.90;88.80;99738.31;103928;1266;72841;-60
2023/07/15 08:55:56;;;;;;;4.00;1.60;;;;;;;26.97;87.98;99734.10;104111;1258;60131;-58
2023/07/15 08:58:24;;;;;;;3.70;1.30;;;;;;;27.06;83.13;99728.70;104122;1269;59905;-59
2023/07/15 09:00:51;;;;;;;1.60;1.10;;;;;;;27.14;79.98;99730.98;104127;1261;72826;-58
2023/07/15 09:03:19;;;;;;;2.50;1.50;;;;;;;27.16;73.95;99730.91;104205;1260;68716;-58
2023/07/15 09:05:48;;;;;;;2.50;1.20;;;;;;;27.15;78.01;99731.08;104176;1260;72539;-58
2023/07/15 09:08:15;;;;;;;2.60;1.20;;;;;;;27.18;77.41;99726.73;104213;1259;59918;-59
2023/07/15 09:10:52;;;;;;;5.30;1.40;;;;;;;27.29;75.38;99726.56;104138;1273;59889;-58
2023/07/15 09:13:26;;;;;;;6.80;1.80;;;;;;;27.34;70.01;99722.01;104346;1265;73344;-59
2023/07/15 09:15:55;;;;;;;2.20;1.30;;;;;;;27.39;70.81;99720.84;104415;1259;68436;-58
2023/07/15 09:18:22;;;;;;;1.80;1.30;;;;;;;27.44;69.51;99725.02;104346;1256;72853;-58
2023/07/15 09:20:49;;;;;;;1.90;1.10;;;;;;;27.48;68.31;99721.09;104542;1254;60431;-59
2023/07/15 09:23:16;;;;;;;2.30;1.20;;;;;;;27.56;69.79;99721.67;104354;1257;60063;-58
2023/07/15 09:25:52;;;;;;;1.80;1.10;;;;;;;27.65;66.52;99721.95;104416;1255;73115;-59
2023/07/15 09:28:22;;;;;;;1.30;1.20;;;;;;;27.73;65.11;99724.49;107959;1254;68457;-59
2023/07/15 09:30:49;;;;;;;7.20;1.60;;;;;;;27.83;64.57;99721.85;104868;1254;72355;-59
2023/07/15 09:33:32;;;;;;;3.60;1.30;;;;;;;27.89;61.41;99722.94;104501;1257;60286;-60
2023/07/15 09:36:02;;;;;;;1.30;1.20;;;;;;;27.95;62.34;99719.42;104800;1253;60049;-59
2023/07/15 09:38:36;;;;;;;1.60;1.30;;;;;;;28.03;62.52;99721.92;104789;1260;73290;-60
2023/07/15 09:41:05;;;;;;;3.90;1.30;;;;;;;28.04;63.94;99727.91;104272;1263;70422;-57
2023/07/15 09:43:49;;;;;;;1.30;1.20;;;;;;;28.10;65.00;99729.61;104356;1259;72938;-58
2023/07/15 09:46:18;;;;;;;4.60;1.70;;;;;;;28.06;59.06;99732.35;104403;1254;59997;-59
2023/07/15 09:48:45;;;;;;;2.30;1.10;;;;;;;28.00;60.57;99732.77;104497;1258;59374;-57
2023/07/15 09:51:14;;;;;;;5.00;1.20;;;;;;;28.01;61.16;99731.21;105280;1257;73302;-58
2023/07/15 09:53:45;;;;;;;2.10;1.20;;;;;;;27.94;57.69;99725.64;105038;1254;70079;-60
2023/07/15 09:56:12;;;;;;;1.90;1.30;;;;;;;27.91;62.81;99727.41;107056;1255;72708;-60
2023/07/15 09:58:39;;;;;;;1.50;1.20;;;;;;;27.97;60.21;99727.83;104393;1254;60036;-59
2023/07/15 10:01:09;;;;;;;;;;;;;;;28.02;62.73;99727.25;104722;1254;59879;-59
2023/07/15 10:03:43;;;;;;;4.10;1.40;;;;;;;27.99;62.80;99721.28;104809;1256;72807;-59
2023/07/15 10:06:10;;;;;;;1.50;1.40;;;;;;;28.09;64.06;99727.02;104624;1254;69935;-59
2023/07/15 10:08:37;;;;;;;2.10;1.40;;;;;;;28.18;59.24;99727.03;104545;1256;72986;-59
2023/07/15 10:11:06;;;;;;;3.80;1.50;;;;;;;28.18;58.21;99721.86;104316;1269;60183;-59
2023/07/15 10:13:33;;;;;;;1.60;1.30;;;;;;;28.23;60.92;99722.81;104477;1257;59857;-58
2023/07/15 10:16:01;;;;;;;2.30;1.40;;;;;;;28.31;60.22;99723.50;104361;1269;72977;-59
2023/07/15 10:18:31;;;;;;;1.80;1.10;;;;;;;28.41;58.75;99720.44;104505;1254;69903;-59
2023/07/15 10:21:03;;;;;;;2.50;1.30;;;;;;;28.43;57.39;99719.61;104290;1254;73181;-58
2023/07/15 10:23:31;;;;;;;1.50;1.40;;;;;;;28.36;56.54;99720.29;104275;1255;60565;-60
2023/07/15 10:26:03;;;;;;;4.70;1.60;;;;;;;28.29;58.04;99722.20;104527;1254;60570;-59
2023/07/15 10:28:34;;;;;;;1.80;1.40;;;;;;;28.22;58.40;99721.20;108418;1254;73423;-60
2023/07/15 10:31:11;;;;;;;1.80;1.70;;;;;;;28.12;58.40;99718.52;104636;1254;69300;-58
2023/07/15 10:33:55;;;;;;;1.60;1.50;;;;;;;28.00;64.03;99716.86;104651;1268;72965;-59
2023/07/15 10:36:36;;;;;;;1.30;1.20;;;;;;;27.99;68.86;99711.77;104525;1257;60482;-58
2023/07/15 10:39:17;;;;;;;2.10;1.50;;;;;;;28.06;63.49;99709.54;104873;1256;60553;-59
2023/07/15 10:41:45;;;;;;;2.00;1.40;;;;;;;28.06;67.64;99701.73;104353;1269;74086;-59
2023/07/15 10:44:24;;;;;;;2.60;1.60;;;;;;;28.02;66.19;99700.84;104619;1256;70509;-59
2023/07/15 10:46:58;;;;;;;3.10;1.80;;;;;;;27.93;68.17;99698.69;104547;1257;73026;-59
2023/07/15 10:49:26;;;;;;;2.00;1.60;;;;;;;27.89;67.18;99700.82;104526;1254;60492;-60
2023/07/15 10:51:57;;;;;;;2.10;2.00;;;;;;;27.85;63.00;99698.94;104341;1270;60335;-59
2023/07/15 10:54:30;;;;;;;1.60;1.40;;;;;;;27.79;61.66;99704.86;104292;1256;74170;-59
2023/07/15 10:56:57;;;;;;;3.20;1.20;;;;;;;27.67;60.20;99701.86;104456;1257;68855;-58
2023/07/15 10:59:32;;;;;;;1.10;1.00;;;;;;;27.59;63.04;99703.00;104475;1267;73181;-59
2023/07/15 11:01:59;;;;;;;1.30;1.20;;;;;;;27.49;62.30;99702.77;104289;1269;60541;-58
2023/07/15 11:04:26;;;;;;;2.50;1.50;;;;;;;27.35;61.17;99702.55;104969;1257;60485;-58
2023/07/15 11:06:59;;;;;;;3.80;1.50;;;;;;;27.25;64.61;99708.37;104466;1255;73844;-59
2023/07/15 11:09:27;;;;;;;2.80;1.70;;;;;;;27.30;65.37;99705.73;104431;1259;69606;-58
2023/07/15 11:11:55;;;;;;;4.20;1.50;;;;;;;27.32;65.65;99702.89;104511;1253;72319;-57
2023/07/15 11:14:27;;;;;;;3.50;1.30;;;;;;;27.36;62.63;99699.83;104514;1256;60583;-58
2023/07/15 11:16:58;;;;;;;2.90;1.30;;;;;;;27.31;60.93;99699.31;105061;1258;60838;-58
2023/07/15 11:19:27;;;;;;;2.50;1.40;;;;;;;27.31;61.79;99697.45;104640;1258;74334;-59
2023/07/15 11:21:57;;;;;;;3.00;1.50;;;;;;;27.42;60.34;99694.48;104700;1259;68850;-58
2023/07/15 11:24:27;;;;;;;3.30;1.70;;;;;;;27.55;63.51;99693.16;104313;1257;72528;-57
2023/07/15 11:26:54;;;;;;;3.60;1.90;;;;;;;27.72;61.17;99691.16;106000;1254;60460;-59
2023/07/15 11:29:23;;;;;;;3.40;1.30;;;;;;;27.73;58.37;99688.90;108204;1253;59773;-58
2023/07/15 11:31:54;;;;;;;3.30;1.60;;;;;;;27.69;59.87;99692.83;104374;1266;74109;-59
2023/07/15 11:34:22;;;;;;;5.40;4.90;;;;;;;27.73;58.62;99697.11;104793;1257;70039;-58